sensor_id;sensor_type;location;lat;lon;timestamp;P1;durP1;ratioP1;P2;durP2;ratioP2
51374;SDS011;37465;52.738;4.752;2023-12-20T14:29:27;18.25;;;2.83;;
51374;SDS011;37465;52.738;4.752;2023-12-20T14:31:54;13.65;;;3.30;;
51374;SDS011;37465;52.738;4.752;2023-12-20T14:34:22;19.67;;;3.83;;
51374;SDS011;37465;52.738;4.752;2023-12-20T14:36:50;19.45;;;3.85;;
51374;SDS011;37465;52.738;4.752;2023-12-20T14:39:18;17.15;;;3.55;;
51374;SDS011;37465;52.738;4.752;2023-12-20T14:41:46;16.23;;;3.53;;
51374;SDS011;37465;52.738;4.752;2023-12-20T14:44:13;16.58;;;3.88;;
51374;SDS011;37465;52.738;4.752;2023-12-20T14:46:42;21.00;;;3.90;;
51374;SDS011;37465;52.738;4.752;2023-12-20T14:49:10;17.90;;;3.70;;
51374;SDS011;37465;52.738;4.752;2023-12-20T14:51:38;18.02;;;3.85;;
51374;SDS011;37465;52.738;4.752;2023-12-20T14:54:05;17.17;;;3.40;;
51374;SDS011;37465;52.738;4.752;2023-12-20T14:56:35;15.38;;;3.58;;
51374;SDS011;37465;52.738;4.752;2023-12-20T14:59:04;14.40;;;3.55;;
51374;SDS011;37465;52.738;4.752;2023-12-20T15:01:31;14.45;;;3.30;;
51374;SDS011;37465;52.738;4.752;2023-12-20T15:04:00;12.63;;;2.95;;
51374;SDS011;37465;52.738;4.752;2023-12-20T15:06:28;16.85;;;3.65;;
51374;SDS011;37465;52.738;4.752;2023-12-20T15:08:55;15.90;;;3.25;;
51374;SDS011;37465;52.738;4.752;2023-12-20T15:11:23;19.27;;;3.65;;
51374;SDS011;37465;52.738;4.752;2023-12-20T15:13:51;22.15;;;3.90;;
51374;SDS011;37465;52.738;4.752;2023-12-20T15:16:22;15.82;;;3.47;;
51374;SDS011;37465;52.738;4.752;2023-12-20T15:18:50;17.05;;;3.70;;
51374;SDS011;37465;52.738;4.752;2023-12-20T15:21:19;15.68;;;3.25;;
51374;SDS011;37465;52.738;4.752;2023-12-20T15:23:56;18.42;;;3.33;;
51374;SDS011;37465;52.738;4.752;2023-12-20T15:26:32;18.73;;;4.00;;
51374;SDS011;37465;52.738;4.752;2023-12-20T15:28:59;19.35;;;4.05;;
51374;SDS011;37465;52.738;4.752;2023-12-20T15:31:27;15.48;;;3.83;;
51374;SDS011;37465;52.738;4.752;2023-12-20T15:33:55;15.50;;;3.50;;
51374;SDS011;37465;52.738;4.752;2023-12-20T15:36:24;15.40;;;2.90;;
51374;SDS011;37465;52.738;4.752;2023-12-20T15:38:52;17.17;;;3.90;;
51374;SDS011;37465;52.738;4.752;2023-12-20T15:41:19;18.77;;;3.25;;
51374;SDS011;37465;52.738;4.752;2023-12-20T15:43:47;15.60;;;3.50;;
51374;SDS011;37465;52.738;4.752;2023-12-20T15:46:15;21.00;;;3.75;;
51374;SDS011;37465;52.738;4.752;2023-12-20T15:48:42;15.95;;;3.60;;
51374;SDS011;37465;52.738;4.752;2023-12-20T15:51:10;18.87;;;3.97;;
51374;SDS011;37465;52.738;4.752;2023-12-20T15:53:39;15.65;;;3.78;;
51374;SDS011;37465;52.738;4.752;2023-12-20T15:56:06;15.38;;;3.50;;
51374;SDS011;37465;52.738;4.752;2023-12-20T15:58:34;15.05;;;3.88;;
51374;SDS011;37465;52.738;4.752;2023-12-20T16:01:02;17.90;;;3.97;;
51374;SDS011;37465;52.738;4.752;2023-12-20T16:03:30;15.18;;;3.70;;
51374;SDS011;37465;52.738;4.752;2023-12-20T16:06:06;20.08;;;3.78;;
51374;SDS011;37465;52.738;4.752;2023-12-20T16:08:33;14.80;;;3.63;;
51374;SDS011;37465;52.738;4.752;2023-12-20T16:11:03;17.40;;;4.20;;
51374;SDS011;37465;52.738;4.752;2023-12-20T16:13:30;20.33;;;4.40;;
51374;SDS011;37465;52.738;4.752;2023-12-20T16:16:00;19.17;;;4.50;;
51374;SDS011;37465;52.738;4.752;2023-12-20T16:18:31;18.02;;;5.38;;
51374;SDS011;37465;52.738;4.752;2023-12-20T16:20:59;22.23;;;4.60;;
51374;SDS011;37465;52.738;4.752;2023-12-20T16:23:27;22.83;;;4.43;;
51374;SDS011;37465;52.738;4.752;2023-12-20T16:25:55;19.27;;;4.35;;
51374;SDS011;37465;52.738;4.752;2023-12-20T16:28:24;21.07;;;4.33;;
51374;SDS011;37465;52.738;4.752;2023-12-20T16:30:51;25.45;;;5.57;;
51374;SDS011;37465;52.738;4.752;2023-12-20T16:33:22;21.08;;;4.47;;
51374;SDS011;37465;52.738;4.752;2023-12-20T16:35:50;25.75;;;4.72;;
51374;SDS011;37465;52.738;4.752;2023-12-20T16:38:18;24.60;;;4.25;;
51374;SDS011;37465;52.738;4.752;2023-12-20T16:40:45;25.15;;;4.80;;
51374;SDS011;37465;52.738;4.752;2023-12-20T16:43:13;29.33;;;5.30;;
51374;SDS011;37465;52.738;4.752;2023-12-20T16:45:41;23.73;;;4.80;;
51374;SDS011;37465;52.738;4.752;2023-12-20T16:48:09;26.50;;;4.90;;
51374;SDS011;37465;52.738;4.752;2023-12-20T16:50:37;23.58;;;4.15;;
51374;SDS011;37465;52.738;4.752;2023-12-20T16:53:04;21.02;;;3.90;;
51374;SDS011;37465;52.738;4.752;2023-12-20T16:55:32;24.95;;;5.03;;
51374;SDS011;37465;52.738;4.752;2023-12-20T16:58:00;28.75;;;5.25;;
51374;SDS011;37465;52.738;4.752;2023-12-20T17:00:32;27.58;;;4.75;;
51374;SDS011;37465;52.738;4.752;2023-12-20T17:03:01;26.50;;;5.27;;
51374;SDS011;37465;52.738;4.752;2023-12-20T17:05:29;19.20;;;4.25;;
51374;SDS011;37465;52.738;4.752;2023-12-20T17:07:56;19.52;;;4.72;;
51374;SDS011;37465;52.738;4.752;2023-12-20T17:10:24;25.50;;;4.80;;
51374;SDS011;37465;52.738;4.752;2023-12-20T17:12:51;27.67;;;5.00;;
51374;SDS011;37465;52.738;4.752;2023-12-20T17:15:19;20.50;;;4.45;;
51374;SDS011;37465;52.738;4.752;2023-12-20T17:17:46;33.45;;;5.13;;
51374;SDS011;37465;52.738;4.752;2023-12-20T17:20:16;26.38;;;4.80;;
51374;SDS011;37465;52.738;4.752;2023-12-20T17:22:44;25.92;;;5.10;;
51374;SDS011;37465;52.738;4.752;2023-12-20T17:25:11;24.48;;;4.90;;
51374;SDS011;37465;52.738;4.752;2023-12-20T17:27:39;29.00;;;4.93;;
51374;SDS011;37465;52.738;4.752;2023-12-20T17:30:07;21.40;;;4.30;;
51374;SDS011;37465;52.738;4.752;2023-12-20T17:32:35;27.85;;;4.68;;
51374;SDS011;37465;52.738;4.752;2023-12-20T17:35:04;24.85;;;4.63;;
51374;SDS011;37465;52.738;4.752;2023-12-20T17:37:33;24.90;;;4.43;;
51374;SDS011;37465;52.738;4.752;2023-12-20T17:40:00;23.00;;;4.43;;
51374;SDS011;37465;52.738;4.752;2023-12-20T17:42:28;23.67;;;4.65;;
51374;SDS011;37465;52.738;4.752;2023-12-20T17:44:56;23.48;;;4.35;;
51374;SDS011;37465;52.738;4.752;2023-12-20T17:47:23;29.70;;;5.13;;
51374;SDS011;37465;52.738;4.752;2023-12-20T17:49:51;19.38;;;4.00;;
51374;SDS011;37465;52.738;4.752;2023-12-20T17:52:18;23.52;;;4.35;;
51374;SDS011;37465;52.738;4.752;2023-12-20T17:54:47;24.73;;;4.78;;
51374;SDS011;37465;52.738;4.752;2023-12-20T17:57:15;23.83;;;4.43;;
51374;SDS011;37465;52.738;4.752;2023-12-20T17:59:45;22.15;;;4.10;;
51374;SDS011;37465;52.738;4.752;2023-12-20T18:02:12;25.67;;;4.32;;
51374;SDS011;37465;52.738;4.752;2023-12-20T18:04:40;31.38;;;5.32;;
51374;SDS011;37465;52.738;4.752;2023-12-20T18:07:09;25.13;;;4.57;;
51374;SDS011;37465;52.738;4.752;2023-12-20T18:09:36;31.13;;;4.57;;
51374;SDS011;37465;52.738;4.752;2023-12-20T18:12:06;26.77;;;5.13;;
51374;SDS011;37465;52.738;4.752;2023-12-20T18:14:34;26.60;;;4.63;;
51374;SDS011;37465;52.738;4.752;2023-12-20T18:17:02;24.92;;;5.10;;
51374;SDS011;37465;52.738;4.752;2023-12-20T18:19:29;23.65;;;4.40;;
51374;SDS011;37465;52.738;4.752;2023-12-20T18:21:57;18.83;;;3.83;;
51374;SDS011;37465;52.738;4.752;2023-12-20T18:24:25;23.90;;;4.43;;
51374;SDS011;37465;52.738;4.752;2023-12-20T18:26:52;19.65;;;3.85;;
51374;SDS011;37465;52.738;4.752;2023-12-20T18:29:21;26.48;;;5.30;;
51374;SDS011;37465;52.738;4.752;2023-12-20T18:31:49;27.70;;;5.10;;
51374;SDS011;37465;52.738;4.752;2023-12-20T18:34:16;24.88;;;4.38;;
51374;SDS011;37465;52.738;4.752;2023-12-20T18:36:44;22.63;;;4.90;;
51374;SDS011;37465;52.738;4.752;2023-12-20T18:39:14;27.38;;;4.80;;
51374;SDS011;37465;52.738;4.752;2023-12-20T18:41:42;19.35;;;3.90;;
51374;SDS011;37465;52.738;4.752;2023-12-20T18:44:14;23.35;;;4.38;;
51374;SDS011;37465;52.738;4.752;2023-12-20T18:46:43;25.45;;;4.57;;
51374;SDS011;37465;52.738;4.752;2023-12-20T18:49:11;28.00;;;4.15;;
51374;SDS011;37465;52.738;4.752;2023-12-20T18:51:39;22.58;;;4.55;;
51374;SDS011;37465;52.738;4.752;2023-12-20T18:54:07;23.73;;;4.45;;
51374;SDS011;37465;52.738;4.752;2023-12-20T18:56:34;27.25;;;4.70;;
51374;SDS011;37465;52.738;4.752;2023-12-20T18:59:04;24.30;;;4.70;;
51374;SDS011;37465;52.738;4.752;2023-12-20T19:01:31;24.05;;;4.55;;
51374;SDS011;37465;52.738;4.752;2023-12-20T19:04:00;24.58;;;4.63;;
51374;SDS011;37465;52.738;4.752;2023-12-20T19:06:28;25.20;;;4.88;;
51374;SDS011;37465;52.738;4.752;2023-12-20T19:08:56;23.65;;;4.60;;
51374;SDS011;37465;52.738;4.752;2023-12-20T19:11:23;22.88;;;4.32;;
51374;SDS011;37465;52.738;4.752;2023-12-20T19:13:51;24.38;;;4.63;;
51374;SDS011;37465;52.738;4.752;2023-12-20T19:16:18;22.93;;;4.57;;
51374;SDS011;37465;52.738;4.752;2023-12-20T19:18:46;24.20;;;4.80;;
51374;SDS011;37465;52.738;4.752;2023-12-20T19:21:15;21.50;;;4.63;;
51374;SDS011;37465;52.738;4.752;2023-12-20T19:23:43;22.50;;;4.43;;
51374;SDS011;37465;52.738;4.752;2023-12-20T19:26:11;24.55;;;4.63;;
51374;SDS011;37465;52.738;4.752;2023-12-20T19:28:39;22.93;;;4.20;;
51374;SDS011;37465;52.738;4.752;2023-12-20T19:31:10;24.92;;;4.85;;
51374;SDS011;37465;52.738;4.752;2023-12-20T19:33:38;27.13;;;4.80;;
51374;SDS011;37465;52.738;4.752;2023-12-20T19:36:06;19.33;;;4.28;;
51374;SDS011;37465;52.738;4.752;2023-12-20T19:38:37;23.77;;;4.30;;
51374;SDS011;37465;52.738;4.752;2023-12-20T19:41:05;22.52;;;4.70;;
51374;SDS011;37465;52.738;4.752;2023-12-20T19:43:32;19.55;;;4.78;;
51374;SDS011;37465;52.738;4.752;2023-12-20T19:46:00;22.27;;;4.68;;
51374;SDS011;37465;52.738;4.752;2023-12-20T19:48:27;23.55;;;4.82;;
51374;SDS011;37465;52.738;4.752;2023-12-20T19:50:55;22.10;;;4.53;;
51374;SDS011;37465;52.738;4.752;2023-12-20T19:53:22;24.65;;;4.75;;
51374;SDS011;37465;52.738;4.752;2023-12-20T19:55:53;20.88;;;4.40;;
51374;SDS011;37465;52.738;4.752;2023-12-20T19:58:20;19.25;;;4.03;;
51374;SDS011;37465;52.738;4.752;2023-12-20T20:00:48;23.60;;;4.65;;
51374;SDS011;37465;52.738;4.752;2023-12-20T20:03:21;29.15;;;5.10;;
51374;SDS011;37465;52.738;4.752;2023-12-20T20:05:49;25.80;;;5.43;;
51374;SDS011;37465;52.738;4.752;2023-12-20T20:08:17;23.55;;;4.35;;
51374;SDS011;37465;52.738;4.752;2023-12-20T20:10:44;26.88;;;4.45;;
51374;SDS011;37465;52.738;4.752;2023-12-20T20:13:13;18.17;;;4.50;;
51374;SDS011;37465;52.738;4.752;2023-12-20T20:15:42;24.73;;;4.72;;
51374;SDS011;37465;52.738;4.752;2023-12-20T20:18:10;21.45;;;4.10;;
51374;SDS011;37465;52.738;4.752;2023-12-20T20:20:38;21.27;;;4.38;;
51374;SDS011;37465;52.738;4.752;2023-12-20T20:23:06;21.90;;;4.30;;
51374;SDS011;37465;52.738;4.752;2023-12-20T20:25:33;26.73;;;7.22;;
51374;SDS011;37465;52.738;4.752;2023-12-20T20:28:01;23.97;;;4.63;;
51374;SDS011;37465;52.738;4.752;2023-12-20T20:30:30;29.38;;;5.03;;
51374;SDS011;37465;52.738;4.752;2023-12-20T20:32:57;23.88;;;5.05;;
51374;SDS011;37465;52.738;4.752;2023-12-20T20:35:25;23.88;;;4.60;;
51374;SDS011;37465;52.738;4.752;2023-12-20T20:37:52;24.55;;;4.57;;
51374;SDS011;37465;52.738;4.752;2023-12-20T20:40:20;22.75;;;4.80;;
51374;SDS011;37465;52.738;4.752;2023-12-20T20:42:47;22.37;;;4.83;;
51374;SDS011;37465;52.738;4.752;2023-12-20T20:45:15;23.10;;;5.35;;
51374;SDS011;37465;52.738;4.752;2023-12-20T20:47:45;29.27;;;5.45;;
51374;SDS011;37465;52.738;4.752;2023-12-20T20:50:13;27.48;;;5.03;;
51374;SDS011;37465;52.738;4.752;2023-12-20T20:52:41;28.92;;;5.57;;
51374;SDS011;37465;52.738;4.752;2023-12-20T20:55:13;25.27;;;5.32;;
51374;SDS011;37465;52.738;4.752;2023-12-20T20:57:40;30.85;;;5.70;;
51374;SDS011;37465;52.738;4.752;2023-12-20T21:00:08;27.92;;;5.40;;
51374;SDS011;37465;52.738;4.752;2023-12-20T21:02:36;29.45;;;5.50;;
51374;SDS011;37465;52.738;4.752;2023-12-20T21:05:06;28.13;;;5.63;;
51374;SDS011;37465;52.738;4.752;2023-12-20T21:07:33;27.85;;;6.05;;
51374;SDS011;37465;52.738;4.752;2023-12-20T21:10:01;29.02;;;5.65;;
51374;SDS011;37465;52.738;4.752;2023-12-20T21:12:29;23.93;;;5.17;;
51374;SDS011;37465;52.738;4.752;2023-12-20T21:14:56;25.67;;;5.57;;
51374;SDS011;37465;52.738;4.752;2023-12-20T21:17:24;32.15;;;5.88;;
51374;SDS011;37465;52.738;4.752;2023-12-20T21:19:51;27.95;;;5.72;;
51374;SDS011;37465;52.738;4.752;2023-12-20T21:22:20;25.25;;;5.47;;
51374;SDS011;37465;52.738;4.752;2023-12-20T21:24:48;30.83;;;5.95;;
51374;SDS011;37465;52.738;4.752;2023-12-20T21:27:16;26.40;;;5.68;;
51374;SDS011;37465;52.738;4.752;2023-12-20T21:29:43;26.35;;;5.68;;
51374;SDS011;37465;52.738;4.752;2023-12-20T21:32:11;29.33;;;5.80;;
51374;SDS011;37465;52.738;4.752;2023-12-20T21:34:39;23.70;;;5.10;;
51374;SDS011;37465;52.738;4.752;2023-12-20T21:37:06;30.10;;;5.63;;
51374;SDS011;37465;52.738;4.752;2023-12-20T21:39:35;29.88;;;6.05;;
51374;SDS011;37465;52.738;4.752;2023-12-20T21:42:03;31.00;;;5.87;;
51374;SDS011;37465;52.738;4.752;2023-12-20T21:44:31;29.38;;;5.68;;
51374;SDS011;37465;52.738;4.752;2023-12-20T21:46:58;23.70;;;5.05;;
51374;SDS011;37465;52.738;4.752;2023-12-20T21:49:26;24.83;;;5.78;;
51374;SDS011;37465;52.738;4.752;2023-12-20T21:51:53;25.48;;;5.43;;
51374;SDS011;37465;52.738;4.752;2023-12-20T21:54:21;29.38;;;5.30;;
51374;SDS011;37465;52.738;4.752;2023-12-20T21:56:50;33.87;;;6.23;;
51374;SDS011;37465;52.738;4.752;2023-12-20T21:59:19;24.77;;;5.35;;
51374;SDS011;37465;52.738;4.752;2023-12-20T22:01:48;27.92;;;5.35;;
51374;SDS011;37465;52.738;4.752;2023-12-20T22:04:16;32.63;;;6.07;;
51374;SDS011;37465;52.738;4.752;2023-12-20T22:06:43;25.33;;;5.18;;
51374;SDS011;37465;52.738;4.752;2023-12-20T22:09:11;28.27;;;7.05;;
51374;SDS011;37465;52.738;4.752;2023-12-20T22:11:39;29.58;;;5.68;;
51374;SDS011;37465;52.738;4.752;2023-12-20T22:14:08;25.75;;;5.70;;
51374;SDS011;37465;52.738;4.752;2023-12-20T22:16:35;25.42;;;4.97;;
51374;SDS011;37465;52.738;4.752;2023-12-20T22:19:07;27.08;;;5.20;;
51374;SDS011;37465;52.738;4.752;2023-12-20T22:21:35;22.70;;;5.13;;
51374;SDS011;37465;52.738;4.752;2023-12-20T22:24:03;26.10;;;5.43;;
51374;SDS011;37465;52.738;4.752;2023-12-20T22:26:31;20.80;;;4.47;;
51374;SDS011;37465;52.738;4.752;2023-12-20T22:28:58;21.00;;;4.70;;
51374;SDS011;37465;52.738;4.752;2023-12-20T22:31:27;25.67;;;5.00;;
51374;SDS011;37465;52.738;4.752;2023-12-20T22:33:55;22.00;;;4.45;;
51374;SDS011;37465;52.738;4.752;2023-12-20T22:36:22;26.23;;;5.45;;
51374;SDS011;37465;52.738;4.752;2023-12-20T22:38:50;23.63;;;4.70;;
51374;SDS011;37465;52.738;4.752;2023-12-20T22:41:19;22.30;;;4.45;;
51374;SDS011;37465;52.738;4.752;2023-12-20T22:43:47;18.35;;;4.60;;
51374;SDS011;37465;52.738;4.752;2023-12-20T22:46:15;21.10;;;5.13;;
51374;SDS011;37465;52.738;4.752;2023-12-20T22:48:45;21.95;;;4.55;;
51374;SDS011;37465;52.738;4.752;2023-12-20T22:51:12;29.15;;;5.38;;
51374;SDS011;37465;52.738;4.752;2023-12-20T22:53:40;20.85;;;4.10;;
51374;SDS011;37465;52.738;4.752;2023-12-20T22:56:07;20.60;;;4.37;;
51374;SDS011;37465;52.738;4.752;2023-12-20T22:58:35;23.90;;;4.73;;
51374;SDS011;37465;52.738;4.752;2023-12-20T23:01:03;22.90;;;4.22;;
51374;SDS011;37465;52.738;4.752;2023-12-20T23:03:31;22.08;;;4.30;;
51374;SDS011;37465;52.738;4.752;2023-12-20T23:06:00;19.60;;;4.20;;
51374;SDS011;37465;52.738;4.752;2023-12-20T23:08:27;22.45;;;4.20;;
51374;SDS011;37465;52.738;4.752;2023-12-20T23:10:55;24.93;;;4.47;;
51374;SDS011;37465;52.738;4.752;2023-12-20T23:13:22;24.20;;;4.53;;
51374;SDS011;37465;52.738;4.752;2023-12-20T23:15:50;22.25;;;4.93;;
51374;SDS011;37465;52.738;4.752;2023-12-20T23:18:18;20.33;;;4.30;;
51374;SDS011;37465;52.738;4.752;2023-12-20T23:20:45;23.88;;;4.63;;
51374;SDS011;37465;52.738;4.752;2023-12-20T23:23:15;19.52;;;4.55;;
51374;SDS011;37465;52.738;4.752;2023-12-20T23:25:43;20.52;;;3.72;;
51374;SDS011;37465;52.738;4.752;2023-12-20T23:28:10;20.63;;;4.68;;
51374;SDS011;37465;52.738;4.752;2023-12-20T23:30:38;19.15;;;4.10;;
51374;SDS011;37465;52.738;4.752;2023-12-20T23:33:06;23.13;;;4.68;;
51374;SDS011;37465;52.738;4.752;2023-12-20T23:35:33;19.58;;;4.03;;
51374;SDS011;37465;52.738;4.752;2023-12-20T23:38:01;23.60;;;4.67;;
51374;SDS011;37465;52.738;4.752;2023-12-20T23:40:30;17.52;;;4.40;;
51374;SDS011;37465;52.738;4.752;2023-12-20T23:42:58;17.52;;;3.97;;
51374;SDS011;37465;52.738;4.752;2023-12-20T23:45:25;21.52;;;4.63;;
51374;SDS011;37465;52.738;4.752;2023-12-20T23:47:53;20.23;;;4.03;;
51374;SDS011;37465;52.738;4.752;2023-12-20T23:50:20;20.35;;;4.28;;
51374;SDS011;37465;52.738;4.752;2023-12-20T23:52:48;19.75;;;3.95;;
51374;SDS011;37465;52.738;4.752;2023-12-20T23:55:16;19.00;;;4.32;;
51374;SDS011;37465;52.738;4.752;2023-12-20T23:57:45;19.38;;;3.85;;
